Time,TemperatureF,DewpointF,PressureIn,WindDirection,WindDirectionDegrees,WindSpeedMPH,WindSpeedGustMPH,Humidity,HourlyPrecipIn,Conditions,Clouds,dailyrainin,SoftwareType,DateUTC
2013-04-10 00:02:00,36.0,35.0,30.04,ENE,66,12.0,26.0,96,0.00,,,1.79,,2013-04-10 05:02:00,
2013-04-10 00:13:00,36.0,35.0,30.03,NE,48,11.0,26.0,96,0.00,,,1.79,,2013-04-10 05:13:00,
2013-04-10 00:23:00,36.0,35.0,30.03,NE,48,11.0,26.0,96,0.00,,,1.79,,2013-04-10 05:23:00,
2013-04-10 00:33:00,36.0,35.0,30.03,NNE,30,14.0,28.0,96,0.00,,,1.79,,2013-04-10 05:33:00,
2013-04-10 00:42:00,36.0,35.0,30.03,NNE,30,14.0,28.0,96,0.00,,,1.79,,2013-04-10 05:42:00,
2013-04-10 00:53:00,35.0,34.0,30.03,East,83,15.0,24.0,96,0.02,,,1.81,,2013-04-10 05:53:00,
2013-04-10 01:03:00,35.0,34.0,30.04,ESE,103,17.0,25.0,97,0.02,,,1.81,,2013-04-10 06:03:00,
2013-04-10 01:12:00,35.0,34.0,30.04,East,89,11.0,23.0,96,0.02,,,1.81,,2013-04-10 06:12:00,
2013-04-10 01:22:00,35.0,34.0,30.04,East,89,11.0,23.0,96,0.02,,,1.81,,2013-04-10 06:22:00,
2013-04-10 01:32:00,35.0,34.0,30.04,ENE,68,10.0,22.0,97,0.04,,,1.83,,2013-04-10 06:32:00,
2013-04-10 01:42:00,35.0,34.0,30.04,ENE,68,10.0,22.0,97,0.04,,,1.83,,2013-04-10 06:42:00,
2013-04-10 01:52:00,35.0,34.0,30.02,East,101,10.0,28.0,97,0.03,,,1.84,,2013-04-10 06:52:00,
2013-04-10 02:02:00,34.0,33.0,30.03,NE,56,13.0,29.0,97,0.08,,,1.89,,2013-04-10 07:02:00,
2013-04-10 02:12:00,34.0,33.0,30.03,NE,56,13.0,29.0,97,0.08,,,1.89,,2013-04-10 07:12:00,
2013-04-10 02:22:00,34.0,33.0,30.04,NE,38,12.0,22.0,97,0.15,,,1.97,,2013-04-10 07:22:00,
2013-04-10 02:32:00,33.0,32.0,30.03,NE,46,15.0,24.0,97,0.34,,,2.18,,2013-04-10 07:32:00,
2013-04-10 02:42:00,33.0,32.0,30.03,NE,46,15.0,24.0,97,0.34,,,2.18,,2013-04-10 07:42:00,
2013-04-10 02:52:00,33.0,32.0,30.02,NE,49,15.0,26.0,97,0.42,,,2.26,,2013-04-10 07:52:00,
2013-04-10 03:02:00,33.0,32.0,29.99,East,84,13.0,24.0,97,0.38,,,2.27,,2013-04-10 08:02:00,
2013-04-10 03:12:00,33.0,32.0,29.99,East,84,13.0,24.0,97,0.38,,,2.27,,2013-04-10 08:12:00,
2013-04-10 03:22:00,33.0,32.0,30.02,East,82,8.0,22.0,97,0.30,,,2.27,,2013-04-10 08:22:00,
2013-04-10 03:32:00,33.0,32.0,30.02,NE,55,14.0,30.0,96,0.09,,,2.27,,2013-04-10 08:32:00,
2013-04-10 03:42:00,33.0,32.0,30.02,NE,55,14.0,30.0,96,0.09,,,2.27,,2013-04-10 08:42:00,
2013-04-10 03:52:00,33.0,32.0,30.03,East,90,14.0,27.0,97,0.01,,,2.27,,2013-04-10 08:52:00,
2013-04-10 04:02:00,33.0,32.0,30.00,ESE,110,13.0,28.0,96,0.04,,,2.31,,2013-04-10 09:02:00,
2013-04-10 04:12:00,33.0,32.0,30.01,ENE,62,20.0,28.0,97,0.05,,,2.32,,2013-04-10 09:12:00,
2013-04-10 04:22:00,33.0,32.0,30.01,ENE,62,20.0,28.0,97,0.05,,,2.32,,2013-04-10 09:22:00,
2013-04-10 04:32:00,33.0,32.0,30.00,ENE,72,14.0,28.0,97,0.05,,,2.32,,2013-04-10 09:32:00,
2013-04-10 04:43:00,33.0,32.0,30.00,ENE,72,14.0,28.0,97,0.05,,,2.32,,2013-04-10 09:43:00,
2013-04-10 04:53:00,34.0,33.0,30.00,East,83,15.0,32.0,97,0.05,,,2.32,,2013-04-10 09:53:00,
2013-04-10 05:03:00,34.0,33.0,29.99,ENE,65,16.0,29.0,97,0.01,,,2.32,,2013-04-10 10:03:00,
2013-04-10 05:12:00,34.0,33.0,30.08,NE,54,12.0,22.0,97,0.01,,,2.33,,2013-04-10 10:12:00,
2013-04-10 05:23:00,34.0,33.0,30.08,NE,54,12.0,22.0,97,0.01,,,2.33,,2013-04-10 10:23:00,
2013-04-10 05:33:00,34.0,33.0,30.05,NNE,14,9.0,21.0,97,0.16,,,2.48,,2013-04-10 10:33:00,
2013-04-10 05:42:00,34.0,33.0,30.05,NNE,14,9.0,21.0,97,0.16,,,2.48,,2013-04-10 10:42:00,
2013-04-10 05:52:00,34.0,33.0,30.17,NW,310,14.0,25.0,97,0.27,,,2.59,,2013-04-10 10:52:00,
2013-04-10 06:02:00,33.0,32.0,30.05,East,95,10.0,22.0,97,0.57,,,2.89,,2013-04-10 11:02:00,
2013-04-10 06:12:00,33.0,32.0,30.05,East,95,10.0,22.0,97,0.57,,,2.89,,2013-04-10 11:12:00,
2013-04-10 06:22:00,33.0,32.0,30.01,East,87,9.0,24.0,97,0.62,,,2.95,,2013-04-10 11:22:00,
2013-04-10 06:32:00,33.0,32.0,29.97,East,80,17.0,26.0,97,0.50,,,2.98,,2013-04-10 11:32:00,
2013-04-10 06:42:00,33.0,32.0,29.97,East,80,17.0,26.0,97,0.50,,,2.98,,2013-04-10 11:42:00,
2013-04-10 06:53:00,34.0,33.0,29.97,East,100,12.0,25.0,97,0.40,,,2.99,,2013-04-10 11:53:00,
2013-04-10 07:02:00,34.0,33.0,30.01,ENE,68,13.0,30.0,97,0.13,,,3.01,,2013-04-10 12:02:00,
2013-04-10 07:12:00,34.0,33.0,30.01,ENE,68,13.0,30.0,97,0.13,,,3.01,,2013-04-10 12:12:00,
2013-04-10 07:22:00,34.0,33.0,30.02,NE,51,11.0,19.0,97,0.14,,,3.10,,2013-04-10 12:22:00,
2013-04-10 07:33:00,34.0,33.0,29.98,NE,47,14.0,29.0,97,0.17,,,3.15,,2013-04-10 12:33:00,
2013-04-10 07:42:00,34.0,33.0,29.98,NE,47,14.0,29.0,97,0.17,,,3.15,,2013-04-10 12:42:00,
2013-04-10 07:52:00,34.0,33.0,30.00,ENE,75,11.0,28.0,97,0.19,,,3.18,,2013-04-10 12:52:00,
2013-04-10 08:02:00,34.0,33.0,30.06,ESE,104,6.0,15.0,97,0.20,,,3.21,,2013-04-10 13:02:00,
2013-04-10 08:12:00,34.0,33.0,30.06,ESE,104,6.0,15.0,97,0.20,,,3.21,,2013-04-10 13:12:00,
2013-04-10 08:23:00,35.0,34.0,30.08,East,79,7.0,10.0,97,0.17,,,3.10,,2013-04-10 13:23:00,
2013-04-10 08:32:00,35.0,34.0,30.06,ENE,60,9.0,17.0,97,0.26,,,3.23,,2013-04-10 13:32:00,
2013-04-10 08:43:00,35.0,34.0,30.06,ENE,60,9.0,17.0,97,0.26,,,3.23,,2013-04-10 13:43:00,
2013-04-10 08:53:00,35.0,34.0,29.93,ENE,59,20.0,28.0,98,0.28,,,3.28,,2013-04-10 13:53:00,
2013-04-10 09:02:00,35.0,34.0,29.92,East,98,15.0,28.0,98,0.26,,,3.29,,2013-04-10 14:02:00,
2013-04-10 09:12:00,35.0,34.0,29.92,East,98,15.0,28.0,98,0.26,,,3.29,,2013-04-10 14:12:00,
2013-04-10 09:22:00,35.0,34.0,29.89,NE,46,16.0,36.0,98,0.19,,,3.12,,2013-04-10 14:22:00,
2013-04-10 09:32:00,35.0,34.0,29.94,East,86,12.0,32.0,98,0.06,,,3.12,,2013-04-10 14:32:00,
2013-04-10 09:42:00,36.0,35.0,30.00,NE,45,8.0,21.0,97,0.01,,,3.12,,2013-04-10 14:42:00,
2013-04-10 09:52:00,36.0,35.0,30.00,NE,45,8.0,21.0,97,0.01,,,3.12,,2013-04-10 14:52:00,
2013-04-10 10:02:00,36.0,35.0,30.02,NE,52,8.0,20.0,98,0.00,,,3.12,,2013-04-10 15:02:00,
2013-04-10 10:12:00,36.0,35.0,30.02,NE,52,8.0,20.0,98,0.00,,,3.12,,2013-04-10 15:12:00,
2013-04-10 10:22:00,36.0,35.0,30.03,NE,48,10.0,17.0,97,0.00,,,3.00,,2013-04-10 15:22:00,
2013-04-10 10:32:00,36.0,35.0,30.04,East,84,9.0,19.0,97,0.00,,,3.00,,2013-04-10 15:32:00,
2013-04-10 10:42:00,36.0,35.0,30.04,East,84,9.0,19.0,97,0.00,,,3.00,,2013-04-10 15:42:00,
2013-04-10 10:52:00,36.0,35.0,30.06,NE,46,10.0,20.0,97,0.00,,,3.00,,2013-04-10 15:52:00,
2013-04-10 11:03:00,37.0,36.0,30.06,NE,47,9.0,18.0,97,0.00,,,3.00,,2013-04-10 16:03:00,
2013-04-10 11:13:00,37.0,36.0,30.06,NE,47,9.0,18.0,97,0.00,,,3.00,,2013-04-10 16:13:00,
2013-04-10 11:23:00,37.0,36.0,30.09,East,91,7.0,16.0,97,0.00,,,2.82,,2013-04-10 16:23:00,
2013-04-10 11:32:00,37.0,36.0,30.11,ENE,74,7.0,14.0,97,0.00,,,2.82,,2013-04-10 16:32:00,
2013-04-10 11:43:00,37.0,36.0,30.11,ENE,74,7.0,14.0,97,0.00,,,2.82,,2013-04-10 16:43:00,
2013-04-10 11:53:00,37.0,36.0,30.09,ENE,60,10.0,15.0,96,0.00,,,2.82,,2013-04-10 16:53:00,
2013-04-10 12:02:00,37.0,36.0,30.06,NE,54,11.0,23.0,96,0.00,,,2.82,,2013-04-10 17:02:00,
2013-04-10 12:12:00,37.0,36.0,30.02,NE,51,15.0,21.0,96,0.00,,,2.68,,2013-04-10 17:12:00,
2013-04-10 12:22:00,37.0,36.0,30.02,NE,51,15.0,21.0,96,0.00,,,2.68,,2013-04-10 17:22:00,
2013-04-10 12:33:00,37.0,36.0,30.01,NNE,17,17.0,28.0,96,0.00,,,2.68,,2013-04-10 17:33:00,
2013-04-10 12:43:00,37.0,36.0,30.01,NNE,17,17.0,28.0,96,0.00,,,2.68,,2013-04-10 17:43:00,
2013-04-10 12:53:00,37.0,36.0,29.99,NE,49,13.0,27.0,96,0.00,,,2.68,,2013-04-10 17:53:00,
2013-04-10 13:02:00,37.0,36.0,30.01,ENE,71,14.0,24.0,96,0.00,,,2.68,,2013-04-10 18:02:00,
2013-04-10 13:12:00,37.0,36.0,30.01,ENE,71,14.0,24.0,96,0.00,,,2.68,,2013-04-10 18:12:00,
2013-04-10 13:23:00,37.0,36.0,29.99,East,98,17.0,30.0,96,0.00,,,2.36,,2013-04-10 18:23:00,
2013-04-10 13:33:00,37.0,36.0,30.03,ENE,67,10.0,26.0,96,0.00,,,2.36,,2013-04-10 18:33:00,
2013-04-10 13:42:00,37.0,36.0,30.03,ENE,67,10.0,26.0,96,0.00,,,2.36,,2013-04-10 18:42:00,
2013-04-10 13:52:00,37.0,36.0,30.04,ENE,74,7.0,21.0,96,0.00,,,2.36,,2013-04-10 18:52:00,
2013-04-10 14:03:00,37.0,36.0,30.06,NE,46,5.0,17.0,96,0.00,,,2.36,,2013-04-10 19:03:00,
2013-04-10 14:12:00,37.0,36.0,30.06,NE,46,5.0,17.0,96,0.00,,,2.36,,2013-04-10 19:12:00,
2013-04-10 14:22:00,37.0,36.0,30.01,NE,54,14.0,25.0,95,0.00,,,2.11,,2013-04-10 19:22:00,
2013-04-10 14:33:00,37.0,36.0,30.05,East,86,10.0,26.0,96,0.00,,,2.11,,2013-04-10 19:33:00,
2013-04-10 14:42:00,37.0,36.0,30.05,East,86,10.0,26.0,96,0.00,,,2.11,,2013-04-10 19:42:00,
2013-04-10 14:53:00,37.0,36.0,30.08,ENE,67,7.0,18.0,96,0.00,,,2.11,,2013-04-10 19:53:00,
2013-04-10 15:02:00,36.0,35.0,30.09,ENE,61,11.0,20.0,96,0.00,,,2.11,,2013-04-10 20:02:00,
2013-04-10 15:12:00,36.0,35.0,30.09,ENE,76,11.0,21.0,96,0.02,,,2.12,,2013-04-10 20:12:00,
2013-04-10 15:23:00,36.0,35.0,30.09,ENE,76,11.0,21.0,96,0.02,,,2.12,,2013-04-10 20:23:00,
2013-04-10 15:33:00,36.0,35.0,30.08,ENE,67,10.0,19.0,96,0.04,,,2.14,,2013-04-10 20:33:00,
2013-04-10 15:42:00,36.0,35.0,30.08,East,86,13.0,19.0,96,0.05,,,2.15,,2013-04-10 20:42:00,
2013-04-10 15:52:00,36.0,35.0,30.08,East,86,13.0,19.0,96,0.05,,,2.15,,2013-04-10 20:52:00,
2013-04-10 16:02:00,36.0,35.0,30.07,NE,51,11.0,21.0,96,0.06,,,2.16,,2013-04-10 21:02:00,
2013-04-10 16:12:00,36.0,35.0,30.04,NE,56,12.0,21.0,96,0.04,,,2.04,,2013-04-10 21:12:00,
2013-04-10 16:22:00,36.0,35.0,30.04,NE,56,12.0,21.0,96,0.04,,,2.04,,2013-04-10 21:22:00,
2013-04-10 16:33:00,36.0,35.0,30.02,ENE,61,13.0,24.0,96,0.03,,,2.05,,2013-04-10 21:33:00,
2013-04-10 16:42:00,36.0,35.0,30.02,ENE,61,13.0,24.0,96,0.03,,,2.05,,2013-04-10 21:42:00,
2013-04-10 16:53:00,36.0,35.0,30.01,NE,47,16.0,23.0,97,0.02,,,2.05,,2013-04-10 21:53:00,
2013-04-10 17:03:00,36.0,35.0,29.98,ENE,61,16.0,25.0,97,0.02,,,2.06,,2013-04-10 22:03:00,
2013-04-10 17:12:00,36.0,35.0,29.98,East,79,11.0,26.0,97,0.02,,,2.06,,2013-04-10 22:12:00,
2013-04-10 17:23:00,36.0,35.0,29.98,East,79,11.0,26.0,97,0.02,,,2.06,,2013-04-10 22:23:00,
2013-04-10 17:33:00,36.0,35.0,29.98,ENE,61,11.0,23.0,97,0.02,,,1.89,,2013-04-10 22:33:00,
2013-04-10 17:42:00,36.0,35.0,29.98,ENE,61,11.0,23.0,97,0.02,,,1.89,,2013-04-10 22:42:00,
2013-04-10 17:52:00,36.0,35.0,29.98,East,80,17.0,31.0,97,0.02,,,1.89,,2013-04-10 22:52:00,
2013-04-10 18:02:00,36.0,35.0,30.01,ENE,73,13.0,26.0,97,0.01,,,1.89,,2013-04-10 23:02:00,
2013-04-10 18:12:00,36.0,35.0,30.01,East,99,12.0,21.0,97,0.01,,,1.83,,2013-04-10 23:12:00,
2013-04-10 18:22:00,36.0,35.0,30.01,East,99,12.0,21.0,97,0.01,,,1.83,,2013-04-10 23:22:00,
2013-04-10 18:32:00,36.0,35.0,30.00,East,90,12.0,25.0,97,0.00,,,1.83,,2013-04-10 23:32:00,
2013-04-10 18:42:00,36.0,35.0,30.00,East,90,12.0,25.0,97,0.00,,,1.83,,2013-04-10 23:42:00,
2013-04-10 18:53:00,35.0,34.0,30.00,ENE,72,13.0,22.0,97,0.00,,,1.83,,2013-04-10 23:53:00,
2013-04-10 19:02:00,35.0,34.0,30.00,East,94,14.0,21.0,97,0.00,,,1.83,,2013-04-11 00:02:00,
2013-04-10 19:12:00,35.0,34.0,30.00,East,89,10.0,23.0,97,0.00,,,1.79,,2013-04-11 00:12:00,
2013-04-10 19:22:00,35.0,34.0,30.00,East,89,10.0,23.0,97,0.00,,,1.79,,2013-04-11 00:22:00,
2013-04-10 19:32:00,35.0,34.0,29.99,ESE,102,12.0,23.0,97,0.00,,,1.79,,2013-04-11 00:32:00,
2013-04-10 19:42:00,35.0,34.0,29.96,ESE,115,14.0,23.0,97,0.00,,,1.79,,2013-04-11 00:42:00,
2013-04-10 19:53:00,35.0,34.0,29.96,ESE,115,14.0,23.0,97,0.00,,,1.79,,2013-04-11 00:53:00,
2013-04-10 20:02:00,35.0,34.0,29.95,ENE,76,14.0,31.0,97,0.00,,,1.79,,2013-04-11 01:02:00,
2013-04-10 20:12:00,35.0,34.0,29.94,ENE,65,15.0,31.0,97,0.00,,,1.78,,2013-04-11 01:12:00,
2013-04-10 20:22:00,35.0,34.0,29.94,ENE,65,15.0,31.0,97,0.00,,,1.78,,2013-04-11 01:22:00,
2013-04-10 20:32:00,35.0,34.0,29.95,ENE,73,11.0,27.0,97,0.00,,,1.78,,2013-04-11 01:32:00,
2013-04-10 20:42:00,35.0,34.0,30.00,East,92,12.0,24.0,97,0.00,,,1.78,,2013-04-11 01:42:00,
2013-04-10 20:52:00,35.0,34.0,30.00,East,92,12.0,24.0,97,0.00,,,1.78,,2013-04-11 01:52:00,
2013-04-10 21:02:00,36.0,35.0,30.04,ENE,74,9.0,18.0,96,0.00,,,1.78,,2013-04-11 02:02:00,
2013-04-10 21:12:00,36.0,35.0,30.03,East,95,11.0,17.0,96,0.00,,,1.78,,2013-04-11 02:12:00,
2013-04-10 21:22:00,36.0,35.0,30.03,East,95,11.0,17.0,96,0.00,,,1.78,,2013-04-11 02:22:00,
2013-04-10 21:32:00,36.0,35.0,30.02,ENE,74,13.0,21.0,95,0.00,,,1.78,,2013-04-11 02:32:00,
2013-04-10 21:42:00,36.0,35.0,30.02,ENE,74,13.0,21.0,95,0.00,,,1.78,,2013-04-11 02:42:00,
2013-04-10 21:53:00,37.0,36.0,30.03,NE,55,13.0,21.0,95,0.00,,,1.78,,2013-04-11 02:53:00,
2013-04-10 22:02:00,37.0,36.0,29.98,NE,50,16.0,25.0,95,0.00,,,1.78,,2013-04-11 03:02:00,
2013-04-10 22:12:00,37.0,36.0,29.97,East,98,13.0,36.0,95,0.00,,,1.78,,2013-04-11 03:12:00,
2013-04-10 22:22:00,37.0,36.0,29.97,East,98,13.0,36.0,95,0.00,,,1.78,,2013-04-11 03:22:00,
2013-04-10 22:33:00,37.0,36.0,30.00,ESE,110,8.0,25.0,95,0.00,,,1.78,,2013-04-11 03:33:00,
2013-04-10 22:43:00,37.0,36.0,29.98,ENE,78,11.0,27.0,96,0.02,,,1.80,,2013-04-11 03:43:00,
2013-04-10 22:53:00,37.0,36.0,29.98,ENE,78,11.0,27.0,96,0.02,,,1.80,,2013-04-11 03:53:00,
2013-04-10 23:03:00,36.0,35.0,29.98,ESE,103,14.0,24.0,96,0.06,,,1.84,,2013-04-11 04:03:00,
2013-04-10 23:12:00,36.0,35.0,29.98,East,101,10.0,23.0,96,0.10,,,1.87,,2013-04-11 04:12:00,
2013-04-10 23:22:00,36.0,35.0,29.98,East,101,10.0,23.0,96,0.10,,,1.87,,2013-04-11 04:22:00,
2013-04-10 23:33:00,36.0,35.0,29.98,East,89,11.0,18.0,96,0.16,,,1.93,,2013-04-11 04:33:00,
2013-04-10 23:42:00,36.0,35.0,29.98,East,89,11.0,18.0,96,0.16,,,1.93,,2013-04-11 04:42:00,
2013-04-10 23:53:00,36.0,35.0,29.98,East,88,14.0,26.0,96,0.17,,,1.95,,2013-04-11 04:53:00,